createdAt,value
2023-03-17T00:01:58.116Z,3.62
2023-03-17T00:04:28.019Z,3.66
2023-03-17T00:06:56.848Z,3.59
2023-03-17T00:09:25.474Z,3.80
2023-03-17T00:11:55.369Z,3.33
2023-03-17T00:14:24.391Z,3.72
2023-03-17T00:16:54.299Z,3.67
2023-03-17T00:19:27.929Z,3.69
2023-03-17T00:21:56.418Z,3.71
2023-03-17T00:24:24.916Z,3.76
2023-03-17T00:26:54.631Z,3.69
2023-03-17T00:29:22.978Z,3.62
2023-03-17T00:31:51.795Z,3.60
2023-03-17T00:34:21.592Z,3.62
2023-03-17T00:36:52.318Z,3.80
2023-03-17T00:39:20.933Z,3.65
2023-03-17T00:41:49.225Z,3.70
2023-03-17T00:44:19.033Z,3.70
2023-03-17T00:46:47.745Z,3.68
2023-03-17T00:49:18.787Z,3.70
2023-03-17T00:51:48.114Z,3.71
2023-03-17T00:54:17.206Z,3.66
2023-03-17T00:56:46.186Z,3.69
2023-03-17T00:59:23.113Z,3.71
2023-03-17T01:01:51.645Z,3.73
2023-03-17T01:04:20.272Z,3.83
2023-03-17T01:06:49.684Z,4.13
2023-03-17T01:09:19.673Z,3.85
2023-03-17T01:11:48.824Z,4.04
2023-03-17T01:14:17.670Z,4.03
2023-03-17T01:16:47.999Z,3.96
2023-03-17T01:19:17.028Z,3.93
2023-03-17T01:21:45.795Z,3.99
2023-03-17T01:24:14.671Z,3.95
2023-03-17T01:26:43.302Z,3.98
2023-03-17T01:29:11.636Z,3.87
2023-03-17T01:31:40.084Z,3.78
2023-03-17T01:34:10.290Z,4.01
2023-03-17T01:36:38.695Z,4.04
2023-03-17T01:39:07.482Z,4.09
2023-03-17T01:41:36.657Z,4.14
2023-03-17T01:44:05.795Z,4.09
2023-03-17T01:46:36.086Z,4.06
2023-03-17T01:49:11.408Z,4.14
2023-03-17T01:54:18.508Z,3.93
2023-03-17T01:56:51.944Z,4.04
2023-03-17T01:59:25.164Z,4.15
2023-03-17T02:01:59.443Z,4.02
2023-03-17T02:04:30.334Z,4.32
2023-03-17T02:06:59.201Z,4.23
2023-03-17T02:09:29.661Z,4.26
2023-03-17T02:12:00.984Z,4.07
2023-03-17T02:14:30.214Z,4.30
2023-03-17T02:16:59.150Z,4.27
2023-03-17T02:19:29.424Z,4.34
2023-03-17T02:22:00.980Z,4.38
2023-03-17T02:24:34.787Z,4.42
2023-03-17T02:27:06.972Z,4.39
2023-03-17T02:29:37.998Z,4.38
2023-03-17T02:32:07.132Z,4.47
2023-03-17T02:34:35.838Z,4.45
2023-03-17T02:37:05.919Z,4.38
2023-03-17T02:39:34.318Z,4.47
2023-03-17T02:42:03.259Z,4.54
2023-03-17T02:44:31.671Z,4.48
2023-03-17T02:47:00.126Z,4.57
2023-03-17T02:49:29.155Z,4.56
2023-03-17T02:51:57.550Z,4.65
2023-03-17T02:54:27.565Z,4.50
2023-03-17T02:56:55.946Z,4.62
2023-03-17T02:59:24.296Z,4.55
2023-03-17T03:01:52.663Z,4.56
2023-03-17T03:04:21.727Z,4.68
2023-03-17T03:06:50.181Z,4.53
2023-03-17T03:09:19.103Z,4.90
2023-03-17T03:11:49.061Z,4.79
2023-03-17T03:14:17.527Z,4.86
2023-03-17T03:16:46.087Z,4.69
2023-03-17T03:19:14.372Z,4.23
2023-03-17T03:21:42.715Z,4.59
2023-03-17T03:24:11.802Z,4.66
2023-03-17T03:26:40.078Z,4.60
2023-03-17T03:29:10.576Z,4.65
2023-03-17T03:31:39.541Z,4.66
2023-03-17T03:34:07.862Z,4.43
2023-03-17T03:36:37.170Z,4.56
2023-03-17T03:39:05.627Z,4.68
2023-03-17T03:41:33.995Z,4.76
2023-03-17T03:44:02.362Z,4.66
2023-03-17T03:46:32.880Z,4.54
2023-03-17T03:49:01.475Z,4.64
2023-03-17T03:51:29.859Z,4.61
2023-03-17T03:53:58.196Z,4.68
2023-03-17T03:56:27.245Z,4.11
2023-03-17T03:58:56.580Z,4.61
2023-03-17T04:01:24.922Z,4.61
2023-03-17T04:03:54.616Z,4.56
2023-03-17T04:06:23.034Z,4.64
2023-03-17T04:08:51.336Z,4.59
2023-03-17T04:11:19.738Z,4.54
2023-03-17T04:13:48.096Z,4.41
2023-03-17T04:16:16.566Z,4.43
2023-03-17T04:18:44.964Z,4.47
2023-03-17T04:21:18.588Z,4.30
2023-03-17T04:23:47.409Z,4.33
2023-03-17T04:26:17.524Z,4.38
2023-03-17T04:28:46.423Z,4.36
2023-03-17T04:31:14.726Z,4.32
2023-03-17T04:33:43.356Z,4.32
2023-03-17T04:36:19.517Z,4.15
2023-03-17T04:38:48.161Z,4.33
2023-03-17T04:41:17.058Z,4.01
2023-03-17T04:43:45.386Z,4.45
2023-03-17T04:46:13.799Z,4.41
2023-03-17T04:48:42.537Z,4.36
2023-03-17T04:51:11.885Z,4.33
2023-03-17T04:53:42.108Z,4.25
2023-03-17T04:56:10.821Z,4.19
2023-03-17T04:58:39.299Z,4.04
2023-03-17T05:01:08.822Z,4.10
2023-03-17T05:03:37.371Z,4.16
2023-03-17T05:06:06.458Z,4.06
2023-03-17T05:08:34.862Z,3.51
2023-03-17T05:11:05.219Z,3.99
2023-03-17T05:13:33.579Z,4.02
2023-03-17T05:16:02.464Z,3.73
2023-03-17T05:18:30.945Z,4.03
2023-03-17T05:20:59.306Z,4.03
2023-03-17T05:23:27.892Z,3.86
2023-03-17T05:25:56.235Z,3.79
2023-03-17T05:28:26.862Z,3.70
2023-03-17T05:30:55.922Z,3.86
2023-03-17T05:33:24.670Z,3.87
2023-03-17T05:35:53.817Z,3.78
2023-03-17T05:38:22.258Z,3.97
2023-03-17T05:40:52.834Z,3.76
2023-03-17T05:43:21.415Z,4.03
2023-03-17T05:45:51.855Z,4.06
2023-03-17T05:48:20.227Z,4.21
2023-03-17T05:50:48.532Z,4.29
2023-03-17T05:53:17.644Z,4.36
2023-03-17T05:55:46.255Z,4.42
2023-03-17T05:58:15.888Z,4.45
2023-03-17T06:00:45.439Z,4.52
2023-03-17T06:03:15.305Z,4.05
2023-03-17T06:05:43.601Z,4.41
2023-03-17T06:08:12.089Z,4.42
2023-03-17T06:10:41.482Z,4.44
2023-03-17T06:13:11.259Z,4.36
2023-03-17T06:15:40.000Z,4.14
2023-03-17T06:18:08.769Z,4.33
2023-03-17T06:20:38.650Z,4.35
2023-03-17T06:23:07.675Z,3.99
2023-03-17T06:25:37.141Z,4.38
2023-03-17T06:28:06.561Z,4.40
2023-03-17T06:30:38.103Z,4.39
2023-03-17T06:33:08.357Z,4.53
2023-03-17T06:35:38.841Z,4.56
2023-03-17T06:38:07.442Z,4.59
2023-03-17T06:40:35.707Z,4.43
2023-03-17T06:43:04.572Z,4.62
2023-03-17T06:45:34.002Z,4.72
2023-03-17T06:48:02.555Z,4.76
2023-03-17T06:50:31.054Z,4.48
2023-03-17T06:53:01.192Z,4.72
2023-03-17T06:55:30.109Z,4.88
2023-03-17T06:57:59.106Z,4.94
2023-03-17T07:00:28.595Z,4.98
2023-03-17T07:02:57.050Z,4.99
2023-03-17T07:05:25.382Z,5.16
2023-03-17T07:07:53.911Z,5.16
2023-03-17T07:10:23.766Z,5.23
2023-03-17T07:12:52.137Z,5.15
2023-03-17T07:15:21.022Z,5.33
2023-03-17T07:17:49.310Z,5.37
2023-03-17T07:20:18.039Z,5.42
2023-03-17T07:22:46.671Z,5.26
2023-03-17T07:25:15.514Z,5.53
2023-03-17T07:27:45.874Z,5.58
2023-03-17T07:30:19.206Z,5.57
2023-03-17T07:32:47.809Z,5.52
2023-03-17T07:35:16.578Z,5.74
2023-03-17T07:37:44.881Z,5.89
2023-03-17T07:40:14.471Z,5.97
2023-03-17T07:42:45.643Z,6.11
2023-03-17T07:45:13.949Z,6.25
2023-03-17T07:47:42.274Z,6.26
2023-03-17T07:50:11.504Z,6.25
2023-03-17T07:52:39.940Z,6.37
2023-03-17T07:55:10.692Z,6.45
2023-03-17T07:57:39.171Z,6.50
2023-03-17T08:00:13.973Z,6.36
2023-03-17T08:02:42.505Z,6.58
2023-03-17T08:05:11.691Z,6.65
2023-03-17T08:07:40.635Z,6.72
2023-03-17T08:10:11.835Z,6.69
2023-03-17T08:12:40.240Z,6.72
2023-03-17T08:15:11.242Z,6.74
2023-03-17T08:17:40.267Z,6.50
2023-03-17T08:20:10.176Z,6.77
2023-03-17T08:22:38.583Z,6.77
2023-03-17T08:25:07.704Z,6.98
2023-03-17T08:27:36.466Z,7.07
2023-03-17T08:30:06.098Z,7.09
2023-03-17T08:32:37.198Z,7.22
2023-03-17T08:35:06.504Z,7.33
2023-03-17T08:37:35.022Z,7.11
2023-03-17T08:40:05.491Z,7.45
2023-03-17T08:42:33.779Z,7.52
2023-03-17T08:45:02.136Z,7.59
2023-03-17T08:47:30.482Z,7.37
2023-03-17T08:50:00.899Z,7.78
2023-03-17T08:52:29.785Z,7.79
2023-03-17T08:54:58.079Z,7.83
2023-03-17T08:57:28.036Z,7.95
2023-03-17T08:59:56.634Z,7.53
2023-03-17T09:02:25.014Z,8.09
2023-03-17T09:04:54.374Z,8.20
2023-03-17T09:07:24.077Z,8.25
2023-03-17T09:09:52.754Z,8.23
2023-03-17T09:12:21.154Z,8.21
2023-03-17T09:14:49.539Z,8.34
2023-03-17T09:17:17.889Z,8.40
2023-03-17T09:19:46.222Z,8.35
2023-03-17T09:22:16.159Z,8.37
2023-03-17T09:24:46.755Z,8.23
2023-03-17T09:27:15.774Z,8.42
2023-03-17T09:29:44.434Z,8.32
2023-03-17T09:32:12.927Z,8.44
2023-03-17T09:34:42.128Z,8.52
2023-03-17T09:37:11.069Z,8.59
2023-03-17T09:39:39.347Z,8.67
2023-03-17T09:42:24.730Z,8.75
2023-03-17T09:45:12.446Z,8.84
2023-03-17T09:48:02.127Z,8.80
2023-03-17T09:50:36.306Z,8.86
2023-03-17T09:53:05.656Z,8.84
2023-03-17T09:55:38.244Z,8.94
2023-03-17T09:58:11.367Z,8.94
2023-03-17T10:00:40.207Z,9.24
2023-03-17T10:03:13.033Z,9.24
2023-03-17T10:05:41.324Z,9.13
2023-03-17T10:08:30.009Z,9.44
2023-03-17T10:11:09.554Z,9.29
2023-03-17T10:13:55.094Z,9.32
2023-03-17T10:16:30.977Z,9.43
2023-03-17T10:19:04.652Z,9.51
2023-03-17T10:21:37.018Z,9.43
2023-03-17T10:24:07.142Z,9.80
2023-03-17T10:26:40.680Z,9.71
2023-03-17T10:29:16.069Z,9.58
2023-03-17T10:31:45.003Z,9.74
2023-03-17T10:34:15.435Z,9.76
2023-03-17T10:36:46.032Z,9.92
2023-03-17T10:39:18.729Z,10.19
2023-03-17T10:41:55.697Z,10.35
2023-03-17T10:44:42.370Z,10.59
2023-03-17T10:47:24.587Z,10.69
2023-03-17T10:49:53.920Z,10.82
2023-03-17T10:52:27.587Z,10.91
2023-03-17T10:54:55.929Z,11.08
2023-03-17T10:57:24.271Z,11.55
2023-03-17T10:59:55.630Z,11.46
2023-03-17T11:02:29.554Z,11.57
2023-03-17T11:05:03.046Z,11.77
2023-03-17T11:07:38.277Z,11.86
2023-03-17T11:10:18.593Z,11.99
2023-03-17T11:12:50.689Z,11.91
2023-03-17T11:15:20.822Z,12.05
2023-03-17T11:17:59.704Z,12.01
2023-03-17T11:20:45.576Z,12.04
2023-03-17T11:23:23.767Z,12.12
2023-03-17T11:26:03.370Z,11.93
2023-03-17T11:28:41.208Z,12.27
2023-03-17T11:31:17.419Z,12.45
2023-03-17T11:33:58.165Z,12.51
2023-03-17T11:36:51.835Z,12.59
2023-03-17T11:39:26.811Z,12.56
2023-03-17T11:42:07.502Z,12.64
2023-03-17T11:45:01.513Z,12.56
2023-03-17T11:47:43.148Z,12.75
2023-03-17T11:50:23.147Z,12.75
2023-03-17T11:53:03.794Z,12.91
2023-03-17T11:55:43.101Z,12.70
2023-03-17T11:58:17.112Z,13.09
2023-03-17T12:00:52.722Z,12.99
2023-03-17T12:03:28.968Z,13.09
2023-03-17T12:06:02.000Z,13.12
2023-03-17T12:08:39.434Z,13.19
2023-03-17T12:11:12.285Z,13.18
2023-03-17T12:13:46.729Z,13.19
2023-03-17T12:16:19.755Z,13.04
2023-03-17T12:18:59.291Z,13.00
2023-03-17T12:21:34.399Z,13.06
2023-03-17T12:24:10.099Z,13.13
2023-03-17T12:26:42.142Z,13.06
2023-03-17T12:29:16.129Z,13.05
2023-03-17T12:31:48.207Z,13.09
2023-03-17T12:34:22.630Z,12.89
2023-03-17T12:36:51.641Z,13.09
2023-03-17T12:39:24.295Z,13.06
2023-03-17T12:42:20.047Z,13.11
2023-03-17T12:45:19.848Z,13.15
2023-03-17T12:47:58.959Z,13.12
2023-03-17T12:50:51.797Z,13.24
2023-03-17T12:53:32.664Z,13.31
2023-03-17T12:56:08.272Z,13.51
2023-03-17T12:58:40.666Z,13.62
2023-03-17T13:01:23.113Z,13.55
2023-03-17T13:04:06.762Z,13.22
2023-03-17T13:06:42.721Z,13.55
2023-03-17T13:09:36.164Z,13.65
2023-03-17T13:12:05.861Z,13.60
2023-03-17T13:14:43.563Z,13.72
2023-03-17T13:17:33.741Z,13.78
2023-03-17T13:20:15.276Z,13.75
2023-03-17T13:23:04.112Z,13.75
2023-03-17T13:25:36.211Z,13.50
2023-03-17T13:28:27.194Z,13.69
2023-03-17T13:31:11.626Z,13.69
2023-03-17T13:33:46.867Z,13.79
2023-03-17T13:36:27.407Z,13.88
2023-03-17T13:39:21.855Z,13.70
2023-03-17T13:42:18.788Z,13.72
2023-03-17T13:45:13.466Z,13.65
2023-03-17T13:47:43.792Z,13.55
2023-03-17T13:50:17.278Z,13.51
2023-03-17T13:52:50.011Z,13.62
2023-03-17T13:55:36.152Z,13.62
2023-03-17T13:58:27.617Z,13.77
2023-03-17T14:01:03.979Z,13.70
2023-03-17T14:03:39.393Z,13.72
2023-03-17T14:06:12.037Z,13.68
2023-03-17T14:08:49.210Z,14.05
2023-03-17T14:11:33.965Z,14.09
2023-03-17T14:14:32.550Z,14.02
2023-03-17T14:17:06.593Z,13.98
2023-03-17T14:19:35.165Z,14.00
2023-03-17T14:22:05.664Z,13.80
2023-03-17T14:24:35.255Z,13.88
2023-03-17T14:27:09.101Z,13.96
2023-03-17T14:29:39.222Z,13.89
2023-03-17T14:32:13.477Z,13.74
2023-03-17T14:34:44.776Z,13.73
2023-03-17T14:37:14.184Z,13.60
2023-03-17T14:39:47.474Z,13.73
2023-03-17T14:42:20.825Z,13.70
2023-03-17T14:44:49.171Z,13.58
2023-03-17T14:47:22.299Z,13.66
2023-03-17T14:49:52.584Z,13.58
2023-03-17T14:52:25.266Z,13.54
2023-03-17T14:54:55.283Z,13.47
2023-03-17T14:57:30.314Z,13.33
2023-03-17T15:00:00.848Z,13.33
2023-03-17T15:02:34.969Z,13.36
2023-03-17T15:05:18.730Z,13.28
2023-03-17T15:07:47.125Z,13.14
2023-03-17T15:10:17.918Z,13.17
2023-03-17T15:12:48.597Z,13.14
2023-03-17T15:15:24.475Z,13.14
2023-03-17T15:17:56.121Z,13.03
2023-03-17T15:20:25.462Z,12.72
2023-03-17T15:22:59.692Z,12.95
2023-03-17T15:25:34.873Z,12.85
2023-03-17T15:28:12.308Z,12.87
2023-03-17T15:30:47.777Z,12.86
2023-03-17T15:33:22.936Z,12.86
2023-03-17T15:35:51.788Z,12.68
2023-03-17T15:38:20.200Z,12.77
2023-03-17T15:40:48.893Z,12.65
2023-03-17T15:43:21.774Z,12.57
2023-03-17T15:45:56.108Z,12.55
2023-03-17T15:48:28.006Z,12.61
2023-03-17T15:50:57.970Z,11.99
2023-03-17T15:53:26.886Z,12.48
2023-03-17T15:55:55.733Z,12.52
2023-03-17T15:58:26.353Z,12.46
2023-03-17T16:00:57.640Z,12.46
2023-03-17T16:03:30.423Z,12.51
2023-03-17T16:05:59.993Z,12.01
2023-03-17T16:08:29.264Z,12.41
2023-03-17T16:10:58.517Z,12.49
2023-03-17T16:13:28.282Z,12.30
2023-03-17T16:15:58.416Z,12.12
2023-03-17T16:18:32.778Z,12.39
2023-03-17T16:21:02.985Z,12.23
2023-03-17T16:23:35.859Z,12.19
2023-03-17T16:26:14.637Z,11.95
2023-03-17T16:28:47.761Z,12.11
2023-03-17T16:31:25.699Z,12.07
2023-03-17T16:33:57.464Z,12.01
2023-03-17T16:36:26.665Z,11.92
2023-03-17T16:38:55.750Z,11.77
2023-03-17T16:41:27.550Z,11.90
2023-03-17T16:44:01.348Z,11.83
2023-03-17T16:46:35.211Z,11.85
2023-03-17T16:49:04.306Z,11.80
2023-03-17T16:51:32.668Z,11.58
2023-03-17T16:54:01.231Z,11.74
2023-03-17T16:56:30.107Z,11.82
2023-03-17T16:59:00.276Z,11.56
2023-03-17T17:01:29.969Z,11.88
2023-03-17T17:03:58.440Z,11.80
2023-03-17T17:06:26.984Z,11.73
2023-03-17T17:08:55.713Z,11.81
2023-03-17T17:11:24.017Z,11.78
2023-03-17T17:13:52.705Z,11.18
2023-03-17T17:16:29.327Z,11.29
2023-03-17T17:18:59.190Z,11.38
2023-03-17T17:21:28.063Z,11.67
2023-03-17T17:23:57.228Z,11.44
2023-03-17T17:26:25.958Z,11.49
2023-03-17T17:28:54.649Z,11.76
2023-03-17T17:31:24.524Z,11.66
2023-03-17T17:33:53.249Z,9.60
2023-03-17T17:36:21.586Z,11.59
2023-03-17T17:38:51.482Z,11.59
2023-03-17T17:41:21.759Z,11.53
2023-03-17T17:43:50.185Z,11.60
2023-03-17T17:46:20.690Z,11.48
2023-03-17T17:48:51.229Z,11.42
2023-03-17T17:51:19.636Z,11.40
2023-03-17T17:53:48.013Z,11.45
2023-03-17T17:56:17.846Z,11.11
2023-03-17T17:58:46.647Z,11.36
2023-03-17T18:01:20.056Z,11.30
2023-03-17T18:03:50.098Z,11.29
2023-03-17T18:06:18.549Z,11.26
2023-03-17T18:08:47.159Z,11.31
2023-03-17T18:11:15.688Z,11.26
2023-03-17T18:13:43.982Z,11.21
2023-03-17T18:16:16.466Z,11.09
2023-03-17T18:18:46.122Z,11.04
2023-03-17T18:21:16.160Z,11.17
2023-03-17T18:23:47.348Z,11.17
2023-03-17T18:26:16.779Z,10.48
2023-03-17T18:28:45.639Z,10.96
2023-03-17T18:31:17.846Z,10.97
2023-03-17T18:33:47.281Z,10.95
2023-03-17T18:36:17.295Z,11.01
2023-03-17T18:38:45.597Z,11.02
2023-03-17T18:41:14.241Z,11.00
2023-03-17T18:43:45.002Z,10.96
2023-03-17T18:46:14.037Z,10.95
2023-03-17T18:48:42.537Z,10.90
2023-03-17T18:51:10.807Z,10.88
2023-03-17T18:53:40.566Z,10.70
2023-03-17T18:56:09.504Z,10.87
2023-03-17T18:58:37.927Z,10.82
2023-03-17T19:01:06.739Z,10.81
2023-03-17T19:03:35.341Z,10.80
2023-03-17T19:06:14.774Z,10.61
2023-03-17T19:08:45.445Z,10.65
2023-03-17T19:11:15.576Z,10.72
2023-03-17T19:13:45.557Z,10.85
2023-03-17T19:16:15.449Z,10.84
2023-03-17T19:18:43.875Z,10.82
2023-03-17T19:21:13.910Z,10.75
2023-03-17T19:23:43.885Z,10.73
2023-03-17T19:26:12.870Z,10.69
2023-03-17T19:28:41.505Z,10.62
2023-03-17T19:31:10.064Z,10.64
2023-03-17T19:33:38.459Z,10.58
2023-03-17T19:36:09.178Z,10.55
2023-03-17T19:38:38.381Z,10.21
2023-03-17T19:41:08.254Z,10.50
2023-03-17T19:43:41.085Z,10.48
2023-03-17T19:46:11.121Z,10.44
2023-03-17T19:48:40.372Z,10.44
2023-03-17T19:51:09.501Z,10.45
2023-03-17T19:53:38.659Z,10.45
2023-03-17T19:56:08.929Z,10.45
2023-03-17T19:58:37.609Z,10.44
2023-03-17T20:01:07.076Z,10.44
2023-03-17T20:03:39.630Z,10.42
2023-03-17T20:06:08.100Z,10.34
2023-03-17T20:08:37.026Z,10.38
2023-03-17T20:11:06.154Z,10.37
2023-03-17T20:13:38.806Z,10.28
2023-03-17T20:16:08.382Z,10.32
2023-03-17T20:18:37.123Z,10.13
2023-03-17T20:21:07.892Z,10.13
2023-03-17T20:23:37.934Z,10.24
2023-03-17T20:26:07.182Z,10.23
2023-03-17T20:28:38.728Z,10.21
2023-03-17T20:31:08.252Z,10.19
2023-03-17T20:33:36.759Z,10.18
2023-03-17T20:36:05.747Z,10.16
2023-03-17T20:38:37.053Z,10.15
2023-03-17T20:41:14.191Z,10.11
2023-03-17T20:43:44.645Z,10.07
2023-03-17T20:46:17.238Z,10.02
2023-03-17T20:48:47.851Z,9.80
2023-03-17T20:51:17.405Z,9.89
2023-03-17T20:53:46.559Z,9.86
2023-03-17T20:56:16.722Z,9.82
2023-03-17T20:58:48.666Z,9.40
2023-03-17T21:01:20.992Z,9.72
2023-03-17T21:03:50.840Z,9.34
2023-03-17T21:06:20.115Z,9.65
2023-03-17T21:08:49.172Z,9.03
2023-03-17T21:11:20.291Z,9.64
2023-03-17T21:13:51.860Z,9.59
2023-03-17T21:16:24.048Z,9.55
2023-03-17T21:18:52.861Z,9.59
2023-03-17T21:21:22.995Z,9.29
2023-03-17T21:23:51.532Z,9.54
2023-03-17T21:26:20.160Z,8.65
2023-03-17T21:28:51.088Z,9.50
2023-03-17T21:31:19.577Z,9.51
2023-03-17T21:33:50.718Z,9.33
2023-03-17T21:36:20.982Z,9.41
2023-03-17T21:38:49.662Z,9.39
2023-03-17T21:41:30.487Z,9.51
2023-03-17T21:44:00.701Z,9.46
2023-03-17T21:46:29.740Z,9.52
2023-03-17T21:48:59.716Z,9.46
2023-03-17T21:51:30.266Z,9.39
2023-03-17T21:54:00.106Z,9.50
2023-03-17T21:56:29.424Z,9.58
2023-03-17T21:59:00.462Z,9.61
2023-03-17T22:01:30.350Z,9.16
2023-03-17T22:03:59.786Z,9.69
2023-03-17T22:06:29.614Z,9.72
2023-03-17T22:08:58.186Z,9.51
2023-03-17T22:11:27.847Z,9.00
2023-03-17T22:13:57.824Z,9.75
2023-03-17T22:16:28.566Z,9.73
2023-03-17T22:18:59.453Z,9.82
2023-03-17T22:21:29.397Z,9.11
2023-03-17T22:23:58.958Z,9.78
2023-03-17T22:26:28.941Z,9.83
2023-03-17T22:28:57.323Z,9.74
2023-03-17T22:31:31.321Z,9.75
2023-03-17T22:34:03.186Z,9.79
2023-03-17T22:36:33.680Z,9.76
2023-03-17T22:39:03.578Z,9.75
2023-03-17T22:41:34.930Z,9.24
2023-03-17T22:44:05.191Z,9.61
2023-03-17T22:46:36.702Z,8.51
2023-03-17T22:49:06.152Z,9.72
2023-03-17T22:51:36.148Z,9.76
2023-03-17T22:54:05.050Z,9.80
2023-03-17T22:56:33.395Z,9.73
2023-03-17T22:59:02.434Z,9.19
2023-03-17T23:01:31.991Z,9.74
2023-03-17T23:04:04.354Z,9.67
2023-03-17T23:06:33.186Z,9.71
2023-03-17T23:09:01.644Z,8.98
2023-03-17T23:11:30.072Z,7.69
2023-03-17T23:13:58.788Z,9.76
2023-03-17T23:16:27.330Z,9.69
2023-03-17T23:18:55.767Z,9.63
2023-03-17T23:21:29.658Z,9.74
2023-03-17T23:23:58.026Z,9.80
2023-03-17T23:26:26.740Z,9.72
2023-03-17T23:28:56.519Z,9.78
2023-03-17T23:31:24.951Z,9.71
2023-03-17T23:33:53.464Z,9.53
2023-03-17T23:36:22.139Z,9.78
2023-03-17T23:38:52.593Z,9.03
2023-03-17T23:41:20.914Z,9.64
2023-03-17T23:43:49.171Z,9.48
2023-03-17T23:46:17.881Z,9.47
2023-03-17T23:48:46.776Z,9.49
2023-03-17T23:51:15.058Z,9.54
2023-03-17T23:53:43.575Z,9.50
2023-03-17T23:56:14.162Z,9.57
2023-03-17T23:58:43.760Z,9.50
